Terminal Aerodrome Forecast
Issued by NWS

Home | Current Version | Previous Version | Text Only | Print | Product List | Glossary On
Versions: 1 2 3 4 5 6 7 8 9 10 11 12 13 14 15
351
FTUS43 KMQT 240520
TAFSAW
TAF
KSAW 240520Z 2406/2506 20008KT 4SM -FZRAPL BR OVC025
     FM240800 20005KT 6SM -FZRA OVC010
     FM241200 26003KT 5SM -RA OVC010
     FM241600 36005KT P6SM OVC008
     FM242000 01006KT P6SM OVC010=

USA.gov is the U.S. government's official web portal to all federal, state and local government web resources and services.